Arcata, CA (95518)

10:26 AM PDT on May 24, 2015 (GMT -0700)
MAP | | Change Station
CLOSE
Current Station
Personal Weather Station
Location: McKinleyville, CA
Elevation: 68 ft
Nearby Weather Stations

Elev 68 ft 40.88 °N, 124.07 °W | Updated 26 minutes ago

Overcast
Overcast
53 °F
Feels Like 53 °F
N
2
Wind Variable Wind from ESE
Gusts 0.0 mph

Today
High -- | Low -- °F
--% Chance of Precip.
Yesterday
High -- | Low -- °F
Precip. -- in
5:51 AM 8:35 PM
Waxing Crescent, 40% visible
Pressure 30.08 in
Visibility 10.0 miles
Clouds Overcast 600 ft
Dew Point 49 °F
Humidity 86%
Rainfall in
Snow Depth Not available.
UV 2 out of 12
Pollen 7.10 out of 12
Air Quality Not available.
Flu Activity Sporadic
METAR KACV 241653Z AUTO 27005KT 10SM OVC006 11/11 A3006 RMK AO2 CIG 003V008 SLP184 T01110106 $

More Conditions Fewer Conditions

Pressure 30.08 in
Visibility 10.0 miles
Clouds Overcast 600 ft
Dew Point 49 °F
Humidity 86%
Rainfall in
Snow Depth Not available.
UV 2 out of 12
Pollen 7.10 out of 12
Air Quality Not available.
Flu Activity Sporadic
METAR KACV 241653Z AUTO 27005KT 10SM OVC006 11/11 A3006 RMK AO2 CIG 003V008 SLP184 T01110106 $

More Conditions Fewer Conditions

10-Day Weather Forecast

Almanac

Astronomy

May. 24, 2015 Rise Set
Actual Time
Civil Twilight
Nautical Twilight
Astronomical Twilight
Moon
Length of Visible Light
Length of Day
Tomorrow will be .
, % of the Moon is Illuminated

Today's Extremes

State Highs State Lows

Community

WunderPhotos

Upload Photos

1,823,804 photos uploaded!

WunderBlogs® & News

Nearby

Air Quality

  Air Quality AQ Index Pollutant
Not available.

Snow Depth

Station Depth Elevation

Earthquake Activity

City Distance Mag. Time & Date
Minimum magnitude displayed is 2.5.

Coastal Water Temperatures

Place Temperature

Stations

Nearby Weather Stations

Station Location Temp. Windchill Dew Point Humidity Wind Precip. Elev Updated Type